sensor_id;sensor_type;location;lat;lon;timestamp;P1;durP1;ratioP1;P2;durP2;ratioP2
51495;SDS011;37572;52.094;4.870;2022-10-31T00:01:44;8.80;;;5.00;;
51495;SDS011;37572;52.094;4.870;2022-10-31T00:04:09;7.37;;;4.70;;
51495;SDS011;37572;52.094;4.870;2022-10-31T00:06:34;9.13;;;5.10;;
51495;SDS011;37572;52.094;4.870;2022-10-31T00:09:00;9.07;;;5.00;;
51495;SDS011;37572;52.094;4.870;2022-10-31T00:11:26;12.65;;;5.18;;
51495;SDS011;37572;52.094;4.870;2022-10-31T00:13:51;9.35;;;5.30;;
51495;SDS011;37572;52.094;4.870;2022-10-31T00:16:17;8.20;;;4.83;;
51495;SDS011;37572;52.094;4.870;2022-10-31T00:18:43;10.85;;;5.32;;
51495;SDS011;37572;52.094;4.870;2022-10-31T00:21:08;11.30;;;5.53;;
51495;SDS011;37572;52.094;4.870;2022-10-31T00:23:34;10.10;;;4.70;;
51495;SDS011;37572;52.094;4.870;2022-10-31T00:26:02;10.20;;;4.93;;
51495;SDS011;37572;52.094;4.870;2022-10-31T00:28:27;8.95;;;5.40;;
51495;SDS011;37572;52.094;4.870;2022-10-31T00:30:52;7.57;;;4.17;;
51495;SDS011;37572;52.094;4.870;2022-10-31T00:33:17;9.53;;;4.93;;
51495;SDS011;37572;52.094;4.870;2022-10-31T00:35:43;8.47;;;4.47;;
51495;SDS011;37572;52.094;4.870;2022-10-31T00:38:13;10.88;;;5.05;;
51495;SDS011;37572;52.094;4.870;2022-10-31T00:40:38;10.00;;;5.50;;
51495;SDS011;37572;52.094;4.870;2022-10-31T00:43:04;10.40;;;5.23;;
51495;SDS011;37572;52.094;4.870;2022-10-31T00:45:29;8.93;;;5.17;;
51495;SDS011;37572;52.094;4.870;2022-10-31T00:47:54;10.53;;;5.67;;
51495;SDS011;37572;52.094;4.870;2022-10-31T00:50:19;11.65;;;6.10;;
51495;SDS011;37572;52.094;4.870;2022-10-31T00:52:44;11.33;;;6.33;;
51495;SDS011;37572;52.094;4.870;2022-10-31T00:55:09;10.20;;;6.03;;
51495;SDS011;37572;52.094;4.870;2022-10-31T00:57:35;14.10;;;6.97;;
51495;SDS011;37572;52.094;4.870;2022-10-31T01:00:00;12.90;;;7.50;;
51495;SDS011;37572;52.094;4.870;2022-10-31T01:02:25;14.33;;;8.27;;
51495;SDS011;37572;52.094;4.870;2022-10-31T01:04:50;17.23;;;9.20;;
51495;SDS011;37572;52.094;4.870;2022-10-31T01:07:15;12.40;;;7.10;;
51495;SDS011;37572;52.094;4.870;2022-10-31T01:09:40;14.63;;;9.63;;
51495;SDS011;37572;52.094;4.870;2022-10-31T01:12:06;14.67;;;8.67;;
51495;SDS011;37572;52.094;4.870;2022-10-31T01:14:31;16.90;;;9.45;;
51495;SDS011;37572;52.094;4.870;2022-10-31T01:16:56;13.47;;;8.37;;
51495;SDS011;37572;52.094;4.870;2022-10-31T01:19:21;12.10;;;8.33;;
51495;SDS011;37572;52.094;4.870;2022-10-31T01:21:46;15.00;;;8.97;;
51495;SDS011;37572;52.094;4.870;2022-10-31T01:24:12;15.73;;;8.90;;
51495;SDS011;37572;52.094;4.870;2022-10-31T01:26:37;17.37;;;9.67;;
51495;SDS011;37572;52.094;4.870;2022-10-31T01:29:03;14.57;;;9.80;;
51495;SDS011;37572;52.094;4.870;2022-10-31T01:31:30;16.02;;;9.57;;
51495;SDS011;37572;52.094;4.870;2022-10-31T01:33:56;18.67;;;10.05;;
51495;SDS011;37572;52.094;4.870;2022-10-31T01:36:29;15.20;;;9.25;;
51495;SDS011;37572;52.094;4.870;2022-10-31T01:38:58;12.57;;;7.63;;
51495;SDS011;37572;52.094;4.870;2022-10-31T01:41:27;17.50;;;10.65;;
51495;SDS011;37572;52.094;4.870;2022-10-31T01:43:57;14.80;;;10.70;;
51495;SDS011;37572;52.094;4.870;2022-10-31T01:46:33;16.42;;;8.95;;
51495;SDS011;37572;52.094;4.870;2022-10-31T01:49:00;14.07;;;9.63;;
51495;SDS011;37572;52.094;4.870;2022-10-31T01:51:28;14.50;;;9.52;;
51495;SDS011;37572;52.094;4.870;2022-10-31T01:53:55;16.05;;;10.52;;
51495;SDS011;37572;52.094;4.870;2022-10-31T01:56:22;17.45;;;10.63;;
51495;SDS011;37572;52.094;4.870;2022-10-31T01:58:47;16.00;;;10.40;;
51495;SDS011;37572;52.094;4.870;2022-10-31T02:01:13;15.17;;;10.23;;
51495;SDS011;37572;52.094;4.870;2022-10-31T02:03:39;15.75;;;10.40;;
51495;SDS011;37572;52.094;4.870;2022-10-31T02:06:06;16.57;;;10.50;;
51495;SDS011;37572;52.094;4.870;2022-10-31T02:08:33;17.25;;;10.93;;
51495;SDS011;37572;52.094;4.870;2022-10-31T02:11:00;18.35;;;10.95;;
51495;SDS011;37572;52.094;4.870;2022-10-31T02:13:25;20.90;;;11.82;;
51495;SDS011;37572;52.094;4.870;2022-10-31T02:15:54;20.10;;;13.23;;
51495;SDS011;37572;52.094;4.870;2022-10-31T02:18:20;17.58;;;12.38;;
51495;SDS011;37572;52.094;4.870;2022-10-31T02:20:59;24.05;;;14.07;;
51495;SDS011;37572;52.094;4.870;2022-10-31T02:33:51;22.35;;;14.93;;
51495;SDS011;37572;52.094;4.870;2022-10-31T02:36:35;21.02;;;13.82;;
51495;SDS011;37572;52.094;4.870;2022-10-31T02:39:13;24.52;;;14.65;;
51495;SDS011;37572;52.094;4.870;2022-10-31T02:41:50;24.58;;;16.63;;
51495;SDS011;37572;52.094;4.870;2022-10-31T02:44:22;22.42;;;14.23;;
51495;SDS011;37572;52.094;4.870;2022-10-31T02:49:38;22.37;;;14.97;;
51495;SDS011;37572;52.094;4.870;2022-10-31T02:51:59;24.67;;;15.82;;
51495;SDS011;37572;52.094;4.870;2022-10-31T02:54:25;22.70;;;14.60;;
51495;SDS011;37572;52.094;4.870;2022-10-31T02:56:53;24.15;;;14.88;;
51495;SDS011;37572;52.094;4.870;2022-10-31T02:59:19;27.23;;;16.02;;
51495;SDS011;37572;52.094;4.870;2022-10-31T03:01:53;25.70;;;16.00;;
51495;SDS011;37572;52.094;4.870;2022-10-31T03:11:48;26.87;;;16.03;;
51495;SDS011;37572;52.094;4.870;2022-10-31T03:14:24;26.98;;;15.90;;
51495;SDS011;37572;52.094;4.870;2022-10-31T03:16:50;31.58;;;17.25;;
51495;SDS011;37572;52.094;4.870;2022-10-31T03:19:26;28.98;;;16.73;;
51495;SDS011;37572;52.094;4.870;2022-10-31T03:21:55;28.23;;;16.85;;
51495;SDS011;37572;52.094;4.870;2022-10-31T03:24:20;28.85;;;16.60;;
51495;SDS011;37572;52.094;4.870;2022-10-31T03:26:48;25.88;;;17.67;;
51495;SDS011;37572;52.094;4.870;2022-10-31T03:29:15;26.83;;;18.13;;
51495;SDS011;37572;52.094;4.870;2022-10-31T03:31:49;33.90;;;19.02;;
51495;SDS011;37572;52.094;4.870;2022-10-31T03:34:15;32.42;;;19.08;;
51495;SDS011;37572;52.094;4.870;2022-10-31T03:36:41;33.15;;;18.92;;
51495;SDS011;37572;52.094;4.870;2022-10-31T03:39:07;32.83;;;19.40;;
51495;SDS011;37572;52.094;4.870;2022-10-31T03:41:34;31.65;;;20.23;;
51495;SDS011;37572;52.094;4.870;2022-10-31T03:44:02;32.28;;;17.33;;
51495;SDS011;37572;52.094;4.870;2022-10-31T03:46:28;29.70;;;18.05;;
51495;SDS011;37572;52.094;4.870;2022-10-31T03:48:53;34.13;;;19.10;;
51495;SDS011;37572;52.094;4.870;2022-10-31T03:51:22;37.10;;;19.35;;
51495;SDS011;37572;52.094;4.870;2022-10-31T03:53:54;28.30;;;16.50;;
51495;SDS011;37572;52.094;4.870;2022-10-31T03:56:32;32.20;;;18.90;;
51495;SDS011;37572;52.094;4.870;2022-10-31T03:59:00;33.47;;;20.30;;
51495;SDS011;37572;52.094;4.870;2022-10-31T04:01:26;32.35;;;18.27;;
51495;SDS011;37572;52.094;4.870;2022-10-31T04:03:53;31.92;;;19.40;;
51495;SDS011;37572;52.094;4.870;2022-10-31T04:06:18;31.02;;;18.92;;
51495;SDS011;37572;52.094;4.870;2022-10-31T04:08:51;36.45;;;20.63;;
51495;SDS011;37572;52.094;4.870;2022-10-31T04:11:18;31.13;;;19.27;;
51495;SDS011;37572;52.094;4.870;2022-10-31T04:13:44;33.55;;;18.50;;
51495;SDS011;37572;52.094;4.870;2022-10-31T04:16:10;32.90;;;19.67;;
51495;SDS011;37572;52.094;4.870;2022-10-31T04:18:36;30.92;;;17.60;;
51495;SDS011;37572;52.094;4.870;2022-10-31T04:21:05;32.80;;;17.50;;
51495;SDS011;37572;52.094;4.870;2022-10-31T04:23:31;29.80;;;18.60;;
51495;SDS011;37572;52.094;4.870;2022-10-31T04:25:56;31.73;;;18.63;;
51495;SDS011;37572;52.094;4.870;2022-10-31T04:28:21;33.77;;;21.97;;
51495;SDS011;37572;52.094;4.870;2022-10-31T04:30:46;33.77;;;19.43;;
51495;SDS011;37572;52.094;4.870;2022-10-31T04:33:11;35.33;;;19.47;;
51495;SDS011;37572;52.094;4.870;2022-10-31T04:35:36;36.53;;;19.97;;
51495;SDS011;37572;52.094;4.870;2022-10-31T04:38:02;39.47;;;21.53;;
51495;SDS011;37572;52.094;4.870;2022-10-31T04:40:27;34.73;;;20.10;;
51495;SDS011;37572;52.094;4.870;2022-10-31T04:42:52;39.03;;;21.07;;
51495;SDS011;37572;52.094;4.870;2022-10-31T04:45:17;37.53;;;22.10;;
51495;SDS011;37572;52.094;4.870;2022-10-31T04:47:42;39.30;;;21.13;;
51495;SDS011;37572;52.094;4.870;2022-10-31T04:50:08;37.17;;;21.13;;
51495;SDS011;37572;52.094;4.870;2022-10-31T04:52:38;35.45;;;21.17;;
51495;SDS011;37572;52.094;4.870;2022-10-31T04:55:03;35.95;;;20.65;;
51495;SDS011;37572;52.094;4.870;2022-10-31T04:57:28;34.93;;;20.53;;
51495;SDS011;37572;52.094;4.870;2022-10-31T04:59:53;35.60;;;20.43;;
51495;SDS011;37572;52.094;4.870;2022-10-31T05:02:18;41.50;;;20.90;;
51495;SDS011;37572;52.094;4.870;2022-10-31T05:04:44;37.97;;;20.23;;
51495;SDS011;37572;52.094;4.870;2022-10-31T05:07:09;34.80;;;19.80;;
51495;SDS011;37572;52.094;4.870;2022-10-31T05:09:34;32.27;;;19.57;;
51495;SDS011;37572;52.094;4.870;2022-10-31T05:11:59;35.50;;;20.90;;
51495;SDS011;37572;52.094;4.870;2022-10-31T05:14:24;36.77;;;20.97;;
51495;SDS011;37572;52.094;4.870;2022-10-31T05:16:49;35.17;;;20.07;;
51495;SDS011;37572;52.094;4.870;2022-10-31T05:19:15;34.20;;;20.20;;
51495;SDS011;37572;52.094;4.870;2022-10-31T05:21:40;34.53;;;19.73;;
51495;SDS011;37572;52.094;4.870;2022-10-31T05:24:05;34.20;;;19.47;;
51495;SDS011;37572;52.094;4.870;2022-10-31T05:26:30;37.58;;;20.52;;
51495;SDS011;37572;52.094;4.870;2022-10-31T05:28:56;34.40;;;19.97;;
51495;SDS011;37572;52.094;4.870;2022-10-31T05:31:21;35.87;;;19.93;;
51495;SDS011;37572;52.094;4.870;2022-10-31T05:33:46;35.50;;;19.83;;
51495;SDS011;37572;52.094;4.870;2022-10-31T05:36:11;34.47;;;19.50;;
51495;SDS011;37572;52.094;4.870;2022-10-31T05:38:36;34.17;;;19.70;;
51495;SDS011;37572;52.094;4.870;2022-10-31T05:41:01;37.93;;;21.93;;
51495;SDS011;37572;52.094;4.870;2022-10-31T05:43:27;25.17;;;15.23;;
51495;SDS011;37572;52.094;4.870;2022-10-31T05:45:53;15.55;;;11.88;;
51495;SDS011;37572;52.094;4.870;2022-10-31T05:48:18;16.02;;;11.15;;
51495;SDS011;37572;52.094;4.870;2022-10-31T05:50:43;17.40;;;10.43;;
51495;SDS011;37572;52.094;4.870;2022-10-31T05:53:08;16.17;;;11.40;;
51495;SDS011;37572;52.094;4.870;2022-10-31T05:55:34;16.77;;;11.53;;
51495;SDS011;37572;52.094;4.870;2022-10-31T05:57:59;19.97;;;12.53;;
51495;SDS011;37572;52.094;4.870;2022-10-31T06:00:26;19.53;;;12.87;;
51495;SDS011;37572;52.094;4.870;2022-10-31T06:03:02;19.38;;;13.63;;
51495;SDS011;37572;52.094;4.870;2022-10-31T06:05:28;22.90;;;14.10;;
51495;SDS011;37572;52.094;4.870;2022-10-31T06:07:53;25.13;;;14.70;;
51495;SDS011;37572;52.094;4.870;2022-10-31T06:10:18;27.80;;;16.40;;
51495;SDS011;37572;52.094;4.870;2022-10-31T06:12:45;26.15;;;14.60;;
51495;SDS011;37572;52.094;4.870;2022-10-31T06:15:11;27.25;;;16.63;;
51495;SDS011;37572;52.094;4.870;2022-10-31T06:17:36;32.77;;;16.23;;
51495;SDS011;37572;52.094;4.870;2022-10-31T06:20:01;26.57;;;17.13;;
51495;SDS011;37572;52.094;4.870;2022-10-31T06:22:27;27.45;;;16.83;;
51495;SDS011;37572;52.094;4.870;2022-10-31T06:24:52;30.15;;;18.65;;
51495;SDS011;37572;52.094;4.870;2022-10-31T06:27:17;31.10;;;17.80;;
51495;SDS011;37572;52.094;4.870;2022-10-31T06:29:42;29.30;;;17.47;;
51495;SDS011;37572;52.094;4.870;2022-10-31T06:32:09;30.67;;;17.47;;
51495;SDS011;37572;52.094;4.870;2022-10-31T06:34:35;32.67;;;18.55;;
51495;SDS011;37572;52.094;4.870;2022-10-31T06:37:00;35.03;;;19.87;;
51495;SDS011;37572;52.094;4.870;2022-10-31T06:39:25;33.87;;;18.67;;
51495;SDS011;37572;52.094;4.870;2022-10-31T06:41:50;31.60;;;19.07;;
51495;SDS011;37572;52.094;4.870;2022-10-31T06:44:15;29.97;;;19.27;;
51495;SDS011;37572;52.094;4.870;2022-10-31T06:46:40;37.50;;;19.57;;
51495;SDS011;37572;52.094;4.870;2022-10-31T06:49:06;39.43;;;21.70;;
51495;SDS011;37572;52.094;4.870;2022-10-31T06:51:31;36.57;;;19.83;;
51495;SDS011;37572;52.094;4.870;2022-10-31T06:53:56;38.67;;;20.73;;
51495;SDS011;37572;52.094;4.870;2022-10-31T06:56:21;45.00;;;24.88;;
51495;SDS011;37572;52.094;4.870;2022-10-31T06:58:46;43.53;;;21.60;;
51495;SDS011;37572;52.094;4.870;2022-10-31T07:01:11;44.97;;;23.17;;
51495;SDS011;37572;52.094;4.870;2022-10-31T07:03:37;40.27;;;22.63;;
51495;SDS011;37572;52.094;4.870;2022-10-31T07:06:02;38.77;;;21.20;;
51495;SDS011;37572;52.094;4.870;2022-10-31T07:08:27;48.07;;;24.13;;
51495;SDS011;37572;52.094;4.870;2022-10-31T07:10:53;47.00;;;22.93;;
51495;SDS011;37572;52.094;4.870;2022-10-31T07:13:18;51.08;;;24.40;;
51495;SDS011;37572;52.094;4.870;2022-10-31T07:15:49;48.65;;;24.63;;
51495;SDS011;37572;52.094;4.870;2022-10-31T07:18:14;54.23;;;25.13;;
51495;SDS011;37572;52.094;4.870;2022-10-31T07:20:39;47.60;;;22.90;;
51495;SDS011;37572;52.094;4.870;2022-10-31T07:23:05;55.87;;;25.20;;
51495;SDS011;37572;52.094;4.870;2022-10-31T07:25:30;49.17;;;23.53;;
51495;SDS011;37572;52.094;4.870;2022-10-31T07:27:55;65.23;;;26.10;;
51495;SDS011;37572;52.094;4.870;2022-10-31T07:30:20;60.27;;;26.10;;
51495;SDS011;37572;52.094;4.870;2022-10-31T07:32:46;54.93;;;24.73;;
51495;SDS011;37572;52.094;4.870;2022-10-31T07:35:13;65.40;;;27.35;;
51495;SDS011;37572;52.094;4.870;2022-10-31T07:37:38;56.45;;;27.05;;
51495;SDS011;37572;52.094;4.870;2022-10-31T07:40:04;61.40;;;27.27;;
51495;SDS011;37572;52.094;4.870;2022-10-31T07:42:37;58.45;;;26.52;;
51495;SDS011;37572;52.094;4.870;2022-10-31T07:45:03;56.50;;;25.90;;
51495;SDS011;37572;52.094;4.870;2022-10-31T07:47:28;58.38;;;27.13;;
51495;SDS011;37572;52.094;4.870;2022-10-31T07:49:53;51.87;;;25.07;;
51495;SDS011;37572;52.094;4.870;2022-10-31T07:52:18;55.17;;;25.40;;
51495;SDS011;37572;52.094;4.870;2022-10-31T07:54:44;60.40;;;27.17;;
51495;SDS011;37572;52.094;4.870;2022-10-31T07:57:09;55.77;;;25.43;;
51495;SDS011;37572;52.094;4.870;2022-10-31T07:59:34;51.63;;;24.17;;
51495;SDS011;37572;52.094;4.870;2022-10-31T08:01:59;50.67;;;25.00;;
51495;SDS011;37572;52.094;4.870;2022-10-31T08:04:24;52.03;;;25.17;;
51495;SDS011;37572;52.094;4.870;2022-10-31T08:06:49;54.97;;;25.07;;
51495;SDS011;37572;52.094;4.870;2022-10-31T08:09:15;52.03;;;25.33;;
51495;SDS011;37572;52.094;4.870;2022-10-31T08:11:41;48.97;;;22.67;;
51495;SDS011;37572;52.094;4.870;2022-10-31T08:14:06;46.97;;;21.60;;
51495;SDS011;37572;52.094;4.870;2022-10-31T08:16:31;46.63;;;24.00;;
51495;SDS011;37572;52.094;4.870;2022-10-31T08:18:57;44.03;;;23.70;;
51495;SDS011;37572;52.094;4.870;2022-10-31T08:21:22;45.20;;;23.00;;
51495;SDS011;37572;52.094;4.870;2022-10-31T08:23:47;43.27;;;22.87;;
51495;SDS011;37572;52.094;4.870;2022-10-31T08:26:12;41.37;;;21.30;;
51495;SDS011;37572;52.094;4.870;2022-10-31T08:28:37;42.97;;;21.53;;
51495;SDS011;37572;52.094;4.870;2022-10-31T08:31:03;46.33;;;23.10;;
51495;SDS011;37572;52.094;4.870;2022-10-31T08:33:28;41.10;;;22.43;;
51495;SDS011;37572;52.094;4.870;2022-10-31T08:35:53;46.00;;;23.63;;
51495;SDS011;37572;52.094;4.870;2022-10-31T08:38:18;40.70;;;23.30;;
51495;SDS011;37572;52.094;4.870;2022-10-31T08:40:47;38.10;;;20.93;;
51495;SDS011;37572;52.094;4.870;2022-10-31T08:43:13;36.10;;;21.58;;
51495;SDS011;37572;52.094;4.870;2022-10-31T08:45:39;37.75;;;20.48;;
51495;SDS011;37572;52.094;4.870;2022-10-31T08:48:05;37.25;;;21.02;;
51495;SDS011;37572;52.094;4.870;2022-10-31T08:50:31;35.85;;;20.30;;
51495;SDS011;37572;52.094;4.870;2022-10-31T08:53:00;36.42;;;20.63;;
51495;SDS011;37572;52.094;4.870;2022-10-31T08:55:26;33.13;;;20.02;;
51495;SDS011;37572;52.094;4.870;2022-10-31T08:57:55;33.78;;;20.00;;
51495;SDS011;37572;52.094;4.870;2022-10-31T09:00:21;35.50;;;20.23;;
51495;SDS011;37572;52.094;4.870;2022-10-31T09:02:46;37.37;;;19.07;;
51495;SDS011;37572;52.094;4.870;2022-10-31T09:05:11;30.60;;;17.57;;
51495;SDS011;37572;52.094;4.870;2022-10-31T09:07:36;30.00;;;18.23;;
51495;SDS011;37572;52.094;4.870;2022-10-31T09:10:02;28.63;;;16.57;;
51495;SDS011;37572;52.094;4.870;2022-10-31T09:12:27;27.15;;;16.08;;
51495;SDS011;37572;52.094;4.870;2022-10-31T09:14:52;28.47;;;16.00;;
51495;SDS011;37572;52.094;4.870;2022-10-31T09:17:18;27.33;;;16.53;;
51495;SDS011;37572;52.094;4.870;2022-10-31T09:19:43;27.43;;;16.07;;
51495;SDS011;37572;52.094;4.870;2022-10-31T09:22:08;27.53;;;16.20;;
51495;SDS011;37572;52.094;4.870;2022-10-31T09:24:33;27.93;;;16.33;;
51495;SDS011;37572;52.094;4.870;2022-10-31T09:26:58;28.00;;;15.77;;
51495;SDS011;37572;52.094;4.870;2022-10-31T09:29:23;29.27;;;16.70;;
51495;SDS011;37572;52.094;4.870;2022-10-31T09:31:49;24.37;;;16.10;;
51495;SDS011;37572;52.094;4.870;2022-10-31T09:34:14;27.37;;;16.33;;
51495;SDS011;37572;52.094;4.870;2022-10-31T09:36:39;24.87;;;16.23;;
51495;SDS011;37572;52.094;4.870;2022-10-31T09:39:04;27.10;;;16.47;;
51495;SDS011;37572;52.094;4.870;2022-10-31T09:44:44;30.95;;;16.75;;
51495;SDS011;37572;52.094;4.870;2022-10-31T09:47:21;26.63;;;14.95;;
51495;SDS011;37572;52.094;4.870;2022-10-31T09:52:35;29.50;;;16.27;;
51495;SDS011;37572;52.094;4.870;2022-10-31T09:57:35;25.77;;;15.07;;
51495;SDS011;37572;52.094;4.870;2022-10-31T10:00:03;25.70;;;15.73;;
51495;SDS011;37572;52.094;4.870;2022-10-31T10:02:30;29.73;;;16.85;;
51495;SDS011;37572;52.094;4.870;2022-10-31T10:05:01;28.40;;;16.83;;
51495;SDS011;37572;52.094;4.870;2022-10-31T10:09:55;22.35;;;13.70;;
51495;SDS011;37572;52.094;4.870;2022-10-31T10:14:58;29.60;;;18.90;;
51495;SDS011;37572;52.094;4.870;2022-10-31T10:17:29;31.55;;;17.58;;
51495;SDS011;37572;52.094;4.870;2022-10-31T10:20:02;31.58;;;18.88;;
51495;SDS011;37572;52.094;4.870;2022-10-31T10:22:38;33.15;;;17.95;;
51495;SDS011;37572;52.094;4.870;2022-10-31T10:30:15;34.03;;;19.35;;
51495;SDS011;37572;52.094;4.870;2022-10-31T10:32:57;31.02;;;18.30;;
51495;SDS011;37572;52.094;4.870;2022-10-31T10:35:33;34.13;;;18.45;;
51495;SDS011;37572;52.094;4.870;2022-10-31T10:38:07;33.28;;;18.75;;
51495;SDS011;37572;52.094;4.870;2022-10-31T10:40:35;30.52;;;17.23;;
51495;SDS011;37572;52.094;4.870;2022-10-31T10:45:45;29.70;;;15.98;;
51495;SDS011;37572;52.094;4.870;2022-10-31T10:48:37;25.27;;;15.88;;
51495;SDS011;37572;52.094;4.870;2022-10-31T10:51:04;24.80;;;14.27;;
51495;SDS011;37572;52.094;4.870;2022-10-31T10:53:39;25.42;;;15.10;;
51495;SDS011;37572;52.094;4.870;2022-10-31T10:56:45;24.30;;;14.07;;
51495;SDS011;37572;52.094;4.870;2022-10-31T10:59:13;21.33;;;13.88;;
51495;SDS011;37572;52.094;4.870;2022-10-31T11:01:39;21.05;;;12.95;;
51495;SDS011;37572;52.094;4.870;2022-10-31T11:04:09;23.92;;;14.77;;
51495;SDS011;37572;52.094;4.870;2022-10-31T11:06:38;20.85;;;14.30;;
51495;SDS011;37572;52.094;4.870;2022-10-31T11:09:09;24.73;;;14.83;;
51495;SDS011;37572;52.094;4.870;2022-10-31T11:11:35;24.20;;;15.35;;
51495;SDS011;37572;52.094;4.870;2022-10-31T11:14:03;23.65;;;12.02;;
51495;SDS011;37572;52.094;4.870;2022-10-31T11:16:36;22.73;;;14.25;;
51495;SDS011;37572;52.094;4.870;2022-10-31T11:19:06;23.38;;;14.48;;
51495;SDS011;37572;52.094;4.870;2022-10-31T11:21:32;21.98;;;14.38;;
51495;SDS011;37572;52.094;4.870;2022-10-31T11:24:03;22.77;;;13.95;;
51495;SDS011;37572;52.094;4.870;2022-10-31T11:26:28;27.75;;;16.70;;
51495;SDS011;37572;52.094;4.870;2022-10-31T11:28:57;22.20;;;14.97;;
51495;SDS011;37572;52.094;4.870;2022-10-31T11:31:22;26.30;;;17.70;;
51495;SDS011;37572;52.094;4.870;2022-10-31T11:33:49;25.27;;;15.25;;
51495;SDS011;37572;52.094;4.870;2022-10-31T11:38:40;24.20;;;16.40;;
51495;SDS011;37572;52.094;4.870;2022-10-31T11:41:13;28.13;;;17.25;;
51495;SDS011;37572;52.094;4.870;2022-10-31T11:43:39;26.90;;;17.88;;
51495;SDS011;37572;52.094;4.870;2022-10-31T11:46:15;29.20;;;16.58;;
51495;SDS011;37572;52.094;4.870;2022-10-31T11:48:46;28.33;;;17.92;;
51495;SDS011;37572;52.094;4.870;2022-10-31T11:51:11;37.80;;;20.02;;
51495;SDS011;37572;52.094;4.870;2022-10-31T11:53:37;29.17;;;19.03;;
51495;SDS011;37572;52.094;4.870;2022-10-31T11:56:03;28.00;;;17.03;;
51495;SDS011;37572;52.094;4.870;2022-10-31T11:58:29;29.50;;;18.10;;
51495;SDS011;37572;52.094;4.870;2022-10-31T12:00:55;32.47;;;17.87;;
51495;SDS011;37572;52.094;4.870;2022-10-31T12:08:18;24.88;;;15.30;;
51495;SDS011;37572;52.094;4.870;2022-10-31T12:10:54;35.50;;;20.03;;
51495;SDS011;37572;52.094;4.870;2022-10-31T12:23:58;36.65;;;21.48;;
51495;SDS011;37572;52.094;4.870;2022-10-31T12:26:32;34.75;;;19.55;;
51495;SDS011;37572;52.094;4.870;2022-10-31T12:29:04;38.42;;;21.45;;
51495;SDS011;37572;52.094;4.870;2022-10-31T12:31:38;35.33;;;19.40;;
51495;SDS011;37572;52.094;4.870;2022-10-31T12:36:35;41.40;;;20.83;;
51495;SDS011;37572;52.094;4.870;2022-10-31T12:44:33;42.17;;;23.55;;
51495;SDS011;37572;52.094;4.870;2022-10-31T12:47:17;37.83;;;18.88;;
51495;SDS011;37572;52.094;4.870;2022-10-31T12:49:48;40.28;;;20.77;;
51495;SDS011;37572;52.094;4.870;2022-10-31T12:59:51;40.20;;;18.77;;
51495;SDS011;37572;52.094;4.870;2022-10-31T13:02:19;39.85;;;18.75;;
51495;SDS011;37572;52.094;4.870;2022-10-31T13:04:50;37.78;;;21.23;;
51495;SDS011;37572;52.094;4.870;2022-10-31T13:07:20;43.13;;;22.27;;
51495;SDS011;37572;52.094;4.870;2022-10-31T13:12:15;41.97;;;21.48;;
51495;SDS011;37572;52.094;4.870;2022-10-31T13:14:44;42.22;;;23.17;;
51495;SDS011;37572;52.094;4.870;2022-10-31T13:17:16;48.08;;;22.70;;
51495;SDS011;37572;52.094;4.870;2022-10-31T13:19:45;46.67;;;22.35;;
51495;SDS011;37572;52.094;4.870;2022-10-31T13:22:16;46.63;;;22.80;;
51495;SDS011;37572;52.094;4.870;2022-10-31T13:24:57;42.55;;;21.60;;
51495;SDS011;37572;52.094;4.870;2022-10-31T13:27:26;42.28;;;21.17;;
51495;SDS011;37572;52.094;4.870;2022-10-31T13:32:36;42.42;;;22.10;;
51495;SDS011;37572;52.094;4.870;2022-10-31T13:35:02;46.50;;;22.58;;
51495;SDS011;37572;52.094;4.870;2022-10-31T13:45:28;39.37;;;20.57;;
51495;SDS011;37572;52.094;4.870;2022-10-31T13:50:37;40.45;;;20.65;;
51495;SDS011;37572;52.094;4.870;2022-10-31T13:55:42;39.78;;;21.45;;
51495;SDS011;37572;52.094;4.870;2022-10-31T13:58:26;46.00;;;21.13;;
51495;SDS011;37572;52.094;4.870;2022-10-31T14:00:59;41.63;;;20.98;;
51495;SDS011;37572;52.094;4.870;2022-10-31T14:03:27;39.97;;;21.60;;
51495;SDS011;37572;52.094;4.870;2022-10-31T14:05:53;36.78;;;20.17;;
51495;SDS011;37572;52.094;4.870;2022-10-31T14:08:20;42.20;;;18.98;;
51495;SDS011;37572;52.094;4.870;2022-10-31T14:10:47;33.50;;;17.88;;
51495;SDS011;37572;52.094;4.870;2022-10-31T14:13:22;40.53;;;19.27;;
51495;SDS011;37572;52.094;4.870;2022-10-31T14:15:53;37.90;;;19.20;;
51495;SDS011;37572;52.094;4.870;2022-10-31T14:20:51;36.63;;;19.42;;
51495;SDS011;37572;52.094;4.870;2022-10-31T14:25:53;45.60;;;25.80;;
51495;SDS011;37572;52.094;4.870;2022-10-31T14:28:20;41.10;;;20.35;;
51495;SDS011;37572;52.094;4.870;2022-10-31T14:30:56;44.20;;;21.95;;
51495;SDS011;37572;52.094;4.870;2022-10-31T14:33:22;39.97;;;21.10;;
51495;SDS011;37572;52.094;4.870;2022-10-31T14:46:40;45.42;;;22.77;;
51495;SDS011;37572;52.094;4.870;2022-10-31T14:51:44;42.45;;;22.08;;
51495;SDS011;37572;52.094;4.870;2022-10-31T14:54:15;43.85;;;22.35;;
51495;SDS011;37572;52.094;4.870;2022-10-31T14:56:48;38.05;;;19.15;;
51495;SDS011;37572;52.094;4.870;2022-10-31T14:59:15;31.67;;;17.17;;
51495;SDS011;37572;52.094;4.870;2022-10-31T15:01:41;37.80;;;18.48;;
51495;SDS011;37572;52.094;4.870;2022-10-31T15:04:15;41.55;;;19.65;;
51495;SDS011;37572;52.094;4.870;2022-10-31T15:06:42;34.28;;;16.77;;
51495;SDS011;37572;52.094;4.870;2022-10-31T15:09:27;42.92;;;20.83;;
51495;SDS011;37572;52.094;4.870;2022-10-31T15:11:52;37.20;;;18.08;;
51495;SDS011;37572;52.094;4.870;2022-10-31T15:14:27;34.40;;;18.20;;
51495;SDS011;37572;52.094;4.870;2022-10-31T15:16:53;41.92;;;19.92;;
51495;SDS011;37572;52.094;4.870;2022-10-31T15:19:26;42.13;;;19.95;;
51495;SDS011;37572;52.094;4.870;2022-10-31T15:21:53;41.63;;;19.77;;
51495;SDS011;37572;52.094;4.870;2022-10-31T15:24:19;36.42;;;17.85;;
51495;SDS011;37572;52.094;4.870;2022-10-31T15:26:48;37.03;;;17.80;;
51495;SDS011;37572;52.094;4.870;2022-10-31T15:29:15;38.35;;;17.98;;
51495;SDS011;37572;52.094;4.870;2022-10-31T15:31:54;31.45;;;15.20;;
51495;SDS011;37572;52.094;4.870;2022-10-31T15:37:03;28.67;;;14.02;;
51495;SDS011;37572;52.094;4.870;2022-10-31T15:39:28;41.07;;;20.13;;
51495;SDS011;37572;52.094;4.870;2022-10-31T15:41:54;34.20;;;17.77;;
51495;SDS011;37572;52.094;4.870;2022-10-31T15:44:21;41.60;;;21.02;;
51495;SDS011;37572;52.094;4.870;2022-10-31T15:47:00;44.22;;;21.92;;
51495;SDS011;37572;52.094;4.870;2022-10-31T15:49:35;43.42;;;19.20;;
51495;SDS011;37572;52.094;4.870;2022-10-31T15:52:10;43.72;;;20.52;;
51495;SDS011;37572;52.094;4.870;2022-10-31T15:54:40;41.83;;;21.40;;
51495;SDS011;37572;52.094;4.870;2022-10-31T15:57:12;52.70;;;24.20;;
51495;SDS011;37572;52.094;4.870;2022-10-31T15:59:37;41.83;;;20.33;;
51495;SDS011;37572;52.094;4.870;2022-10-31T16:02:09;42.10;;;19.95;;
51495;SDS011;37572;52.094;4.870;2022-10-31T16:04:34;44.92;;;22.58;;
51495;SDS011;37572;52.094;4.870;2022-10-31T16:07:13;48.45;;;22.77;;
51495;SDS011;37572;52.094;4.870;2022-10-31T16:09:49;43.70;;;20.65;;
51495;SDS011;37572;52.094;4.870;2022-10-31T16:12:15;37.40;;;18.70;;
51495;SDS011;37572;52.094;4.870;2022-10-31T16:14:41;40.65;;;20.77;;
51495;SDS011;37572;52.094;4.870;2022-10-31T16:17:06;40.25;;;20.83;;
51495;SDS011;37572;52.094;4.870;2022-10-31T16:19:36;44.78;;;22.55;;
51495;SDS011;37572;52.094;4.870;2022-10-31T16:22:04;37.83;;;20.30;;